sensor_id;sensor_type;location;lat;lon;timestamp;P1;durP1;ratioP1;P2;durP2;ratioP2
78209;SDS011;67485;48.816;9.930;2023-04-06T00:01:37;7.07;;;4.43;;
78209;SDS011;67485;48.816;9.930;2023-04-06T00:04:03;6.53;;;3.83;;
78209;SDS011;67485;48.816;9.930;2023-04-06T00:06:29;10.07;;;4.65;;
78209;SDS011;67485;48.816;9.930;2023-04-06T00:08:55;8.30;;;4.23;;
78209;SDS011;67485;48.816;9.930;2023-04-06T00:11:21;10.48;;;4.45;;
78209;SDS011;67485;48.816;9.930;2023-04-06T00:13:47;6.85;;;4.05;;
78209;SDS011;67485;48.816;9.930;2023-04-06T00:16:13;9.20;;;3.90;;
78209;SDS011;67485;48.816;9.930;2023-04-06T00:18:39;10.55;;;4.40;;
78209;SDS011;67485;48.816;9.930;2023-04-06T00:21:05;8.70;;;4.55;;
78209;SDS011;67485;48.816;9.930;2023-04-06T00:23:31;9.38;;;4.75;;
78209;SDS011;67485;48.816;9.930;2023-04-06T00:25:57;9.50;;;4.17;;
78209;SDS011;67485;48.816;9.930;2023-04-06T00:28:23;8.32;;;4.60;;
78209;SDS011;67485;48.816;9.930;2023-04-06T00:30:52;11.02;;;4.38;;
78209;SDS011;67485;48.816;9.930;2023-04-06T00:33:20;7.35;;;4.60;;
78209;SDS011;67485;48.816;9.930;2023-04-06T00:35:46;7.15;;;3.60;;
78209;SDS011;67485;48.816;9.930;2023-04-06T00:38:12;6.95;;;4.20;;
78209;SDS011;67485;48.816;9.930;2023-04-06T00:40:38;9.43;;;4.80;;
78209;SDS011;67485;48.816;9.930;2023-04-06T00:43:08;8.13;;;4.47;;
78209;SDS011;67485;48.816;9.930;2023-04-06T00:45:34;7.53;;;4.05;;
78209;SDS011;67485;48.816;9.930;2023-04-06T00:48:00;10.05;;;4.18;;
78209;SDS011;67485;48.816;9.930;2023-04-06T00:50:27;10.18;;;5.00;;
78209;SDS011;67485;48.816;9.930;2023-04-06T00:52:54;7.65;;;4.13;;
78209;SDS011;67485;48.816;9.930;2023-04-06T00:55:26;10.43;;;4.40;;
78209;SDS011;67485;48.816;9.930;2023-04-06T00:57:53;7.85;;;4.03;;
78209;SDS011;67485;48.816;9.930;2023-04-06T01:00:19;9.20;;;4.00;;
78209;SDS011;67485;48.816;9.930;2023-04-06T01:02:48;6.60;;;4.00;;
78209;SDS011;67485;48.816;9.930;2023-04-06T01:05:17;6.15;;;3.90;;
78209;SDS011;67485;48.816;9.930;2023-04-06T01:07:53;7.63;;;4.23;;
78209;SDS011;67485;48.816;9.930;2023-04-06T01:10:23;7.22;;;3.90;;
78209;SDS011;67485;48.816;9.930;2023-04-06T01:13:10;8.18;;;4.53;;
78209;SDS011;67485;48.816;9.930;2023-04-06T01:15:47;8.52;;;4.30;;
78209;SDS011;67485;48.816;9.930;2023-04-06T01:18:18;8.02;;;4.28;;
78209;SDS011;67485;48.816;9.930;2023-04-06T01:20:57;10.33;;;4.30;;
78209;SDS011;67485;48.816;9.930;2023-04-06T01:23:25;6.78;;;3.92;;
78209;SDS011;67485;48.816;9.930;2023-04-06T01:25:51;7.70;;;4.20;;
78209;SDS011;67485;48.816;9.930;2023-04-06T01:28:17;9.53;;;4.20;;
78209;SDS011;67485;48.816;9.930;2023-04-06T01:31:03;7.53;;;3.85;;
78209;SDS011;67485;48.816;9.930;2023-04-06T01:33:59;11.15;;;5.80;;
78209;SDS011;67485;48.816;9.930;2023-04-06T01:36:25;11.15;;;5.70;;
78209;SDS011;67485;48.816;9.930;2023-04-06T01:39:03;9.83;;;5.37;;
78209;SDS011;67485;48.816;9.930;2023-04-06T01:41:34;7.55;;;4.18;;
78209;SDS011;67485;48.816;9.930;2023-04-06T01:44:00;8.93;;;3.97;;
78209;SDS011;67485;48.816;9.930;2023-04-06T01:46:28;7.47;;;3.88;;
78209;SDS011;67485;48.816;9.930;2023-04-06T01:48:54;7.28;;;4.03;;
78209;SDS011;67485;48.816;9.930;2023-04-06T01:51:33;10.05;;;4.03;;
78209;SDS011;67485;48.816;9.930;2023-04-06T01:54:01;7.82;;;4.03;;
78209;SDS011;67485;48.816;9.930;2023-04-06T01:56:42;6.50;;;4.05;;
78209;SDS011;67485;48.816;9.930;2023-04-06T01:59:22;5.95;;;3.72;;
78209;SDS011;67485;48.816;9.930;2023-04-06T02:01:49;8.20;;;4.13;;
78209;SDS011;67485;48.816;9.930;2023-04-06T02:04:15;7.20;;;3.85;;
78209;SDS011;67485;48.816;9.930;2023-04-06T02:06:43;7.85;;;4.78;;
78209;SDS011;67485;48.816;9.930;2023-04-06T02:09:11;11.23;;;4.45;;
78209;SDS011;67485;48.816;9.930;2023-04-06T02:11:38;5.97;;;3.67;;
78209;SDS011;67485;48.816;9.930;2023-04-06T02:14:04;6.40;;;3.80;;
78209;SDS011;67485;48.816;9.930;2023-04-06T02:16:33;7.53;;;4.13;;
78209;SDS011;67485;48.816;9.930;2023-04-06T02:18:59;7.72;;;3.90;;
78209;SDS011;67485;48.816;9.930;2023-04-06T02:21:25;11.55;;;4.03;;
78209;SDS011;67485;48.816;9.930;2023-04-06T02:23:51;5.82;;;3.42;;
78209;SDS011;67485;48.816;9.930;2023-04-06T02:26:17;7.57;;;4.03;;
78209;SDS011;67485;48.816;9.930;2023-04-06T02:28:42;8.57;;;3.75;;
78209;SDS011;67485;48.816;9.930;2023-04-06T02:31:08;6.90;;;3.80;;
78209;SDS011;67485;48.816;9.930;2023-04-06T02:33:34;7.13;;;4.03;;
78209;SDS011;67485;48.816;9.930;2023-04-06T02:36:00;9.48;;;4.40;;
78209;SDS011;67485;48.816;9.930;2023-04-06T02:38:27;8.38;;;4.50;;
78209;SDS011;67485;48.816;9.930;2023-04-06T02:40:53;9.45;;;4.20;;
78209;SDS011;67485;48.816;9.930;2023-04-06T02:43:22;7.45;;;3.83;;
78209;SDS011;67485;48.816;9.930;2023-04-06T02:45:53;6.03;;;3.80;;
78209;SDS011;67485;48.816;9.930;2023-04-06T02:48:20;8.73;;;4.13;;
78209;SDS011;67485;48.816;9.930;2023-04-06T02:50:46;7.85;;;4.40;;
78209;SDS011;67485;48.816;9.930;2023-04-06T02:53:12;11.17;;;4.67;;
78209;SDS011;67485;48.816;9.930;2023-04-06T02:55:39;7.57;;;4.68;;
78209;SDS011;67485;48.816;9.930;2023-04-06T02:58:04;7.68;;;4.32;;
78209;SDS011;67485;48.816;9.930;2023-04-06T03:00:39;13.03;;;4.30;;
78209;SDS011;67485;48.816;9.930;2023-04-06T03:03:05;9.07;;;4.20;;
78209;SDS011;67485;48.816;9.930;2023-04-06T03:05:33;6.15;;;3.97;;
78209;SDS011;67485;48.816;9.930;2023-04-06T03:07:59;8.88;;;4.32;;
78209;SDS011;67485;48.816;9.930;2023-04-06T03:10:41;7.22;;;3.97;;
78209;SDS011;67485;48.816;9.930;2023-04-06T03:13:07;8.07;;;4.13;;
78209;SDS011;67485;48.816;9.930;2023-04-06T03:15:45;7.03;;;4.30;;
78209;SDS011;67485;48.816;9.930;2023-04-06T03:18:15;8.80;;;4.50;;
78209;SDS011;67485;48.816;9.930;2023-04-06T03:20:46;10.57;;;4.88;;
78209;SDS011;67485;48.816;9.930;2023-04-06T03:23:14;10.70;;;4.97;;
78209;SDS011;67485;48.816;9.930;2023-04-06T03:25:42;9.00;;;4.60;;
78209;SDS011;67485;48.816;9.930;2023-04-06T03:28:11;9.55;;;4.63;;
78209;SDS011;67485;48.816;9.930;2023-04-06T03:30:46;8.02;;;4.57;;
78209;SDS011;67485;48.816;9.930;2023-04-06T03:33:14;7.63;;;4.60;;
78209;SDS011;67485;48.816;9.930;2023-04-06T03:35:49;12.98;;;4.90;;
78209;SDS011;67485;48.816;9.930;2023-04-06T03:38:16;7.77;;;4.50;;
78209;SDS011;67485;48.816;9.930;2023-04-06T03:40:42;8.27;;;4.70;;
78209;SDS011;67485;48.816;9.930;2023-04-06T03:43:08;8.55;;;4.88;;
78209;SDS011;67485;48.816;9.930;2023-04-06T03:45:36;8.93;;;4.70;;
78209;SDS011;67485;48.816;9.930;2023-04-06T03:48:04;8.88;;;4.47;;
78209;SDS011;67485;48.816;9.930;2023-04-06T03:50:33;8.80;;;4.60;;
78209;SDS011;67485;48.816;9.930;2023-04-06T03:52:59;7.03;;;4.65;;
78209;SDS011;67485;48.816;9.930;2023-04-06T03:55:28;7.47;;;4.53;;
78209;SDS011;67485;48.816;9.930;2023-04-06T03:57:55;7.60;;;4.57;;
78209;SDS011;67485;48.816;9.930;2023-04-06T04:00:22;7.60;;;4.50;;
78209;SDS011;67485;48.816;9.930;2023-04-06T04:02:48;8.00;;;4.63;;
78209;SDS011;67485;48.816;9.930;2023-04-06T04:05:14;7.40;;;4.60;;
78209;SDS011;67485;48.816;9.930;2023-04-06T04:07:40;8.07;;;4.45;;
78209;SDS011;67485;48.816;9.930;2023-04-06T04:10:08;8.35;;;4.75;;
78209;SDS011;67485;48.816;9.930;2023-04-06T04:12:34;9.40;;;5.00;;
78209;SDS011;67485;48.816;9.930;2023-04-06T04:15:00;9.23;;;4.97;;
78209;SDS011;67485;48.816;9.930;2023-04-06T04:17:26;8.70;;;4.90;;
78209;SDS011;67485;48.816;9.930;2023-04-06T04:19:51;8.27;;;5.03;;
78209;SDS011;67485;48.816;9.930;2023-04-06T04:22:17;6.93;;;4.22;;
78209;SDS011;67485;48.816;9.930;2023-04-06T04:24:43;8.95;;;5.10;;
78209;SDS011;67485;48.816;9.930;2023-04-06T04:27:09;8.27;;;4.60;;
78209;SDS011;67485;48.816;9.930;2023-04-06T04:29:34;9.10;;;4.97;;
78209;SDS011;67485;48.816;9.930;2023-04-06T04:32:04;8.20;;;4.47;;
78209;SDS011;67485;48.816;9.930;2023-04-06T04:34:30;9.50;;;5.30;;
78209;SDS011;67485;48.816;9.930;2023-04-06T04:36:57;9.57;;;4.97;;
78209;SDS011;67485;48.816;9.930;2023-04-06T04:39:34;9.43;;;5.50;;
78209;SDS011;67485;48.816;9.930;2023-04-06T04:42:04;8.25;;;4.68;;
78209;SDS011;67485;48.816;9.930;2023-04-06T04:44:33;8.80;;;4.72;;
78209;SDS011;67485;48.816;9.930;2023-04-06T04:46:59;10.02;;;4.97;;
78209;SDS011;67485;48.816;9.930;2023-04-06T04:49:36;8.48;;;4.80;;
78209;SDS011;67485;48.816;9.930;2023-04-06T04:52:02;12.48;;;5.18;;
78209;SDS011;67485;48.816;9.930;2023-04-06T04:54:37;9.32;;;5.25;;
78209;SDS011;67485;48.816;9.930;2023-04-06T04:57:03;9.33;;;4.87;;
78209;SDS011;67485;48.816;9.930;2023-04-06T04:59:47;9.85;;;4.53;;
78209;SDS011;67485;48.816;9.930;2023-04-06T05:02:17;8.93;;;5.00;;
78209;SDS011;67485;48.816;9.930;2023-04-06T05:04:54;7.57;;;4.50;;
78209;SDS011;67485;48.816;9.930;2023-04-06T05:07:23;9.88;;;5.50;;
78209;SDS011;67485;48.816;9.930;2023-04-06T05:09:51;13.85;;;5.50;;
78209;SDS011;67485;48.816;9.930;2023-04-06T05:12:19;13.32;;;5.05;;
78209;SDS011;67485;48.816;9.930;2023-04-06T05:15:01;10.05;;;4.97;;
78209;SDS011;67485;48.816;9.930;2023-04-06T05:17:27;8.68;;;4.80;;
78209;SDS011;67485;48.816;9.930;2023-04-06T05:19:53;9.43;;;5.03;;
78209;SDS011;67485;48.816;9.930;2023-04-06T05:22:23;9.75;;;4.63;;
78209;SDS011;67485;48.816;9.930;2023-04-06T05:24:57;10.18;;;5.18;;
78209;SDS011;67485;48.816;9.930;2023-04-06T05:27:23;8.73;;;5.33;;
78209;SDS011;67485;48.816;9.930;2023-04-06T05:29:49;9.32;;;5.57;;
78209;SDS011;67485;48.816;9.930;2023-04-06T05:32:16;14.98;;;6.13;;
78209;SDS011;67485;48.816;9.930;2023-04-06T05:34:43;10.57;;;5.82;;
78209;SDS011;67485;48.816;9.930;2023-04-06T05:37:09;14.40;;;5.90;;
78209;SDS011;67485;48.816;9.930;2023-04-06T05:39:35;10.65;;;5.10;;
78209;SDS011;67485;48.816;9.930;2023-04-06T05:42:03;7.95;;;4.88;;
78209;SDS011;67485;48.816;9.930;2023-04-06T05:44:46;9.05;;;4.80;;
78209;SDS011;67485;48.816;9.930;2023-04-06T05:47:14;9.18;;;4.93;;
78209;SDS011;67485;48.816;9.930;2023-04-06T05:49:42;11.80;;;5.18;;
78209;SDS011;67485;48.816;9.930;2023-04-06T05:52:12;15.35;;;5.28;;
78209;SDS011;67485;48.816;9.930;2023-04-06T05:54:42;9.10;;;5.30;;
78209;SDS011;67485;48.816;9.930;2023-04-06T05:57:08;11.50;;;5.37;;
78209;SDS011;67485;48.816;9.930;2023-04-06T05:59:34;10.48;;;5.40;;
78209;SDS011;67485;48.816;9.930;2023-04-06T06:02:00;11.25;;;5.65;;
78209;SDS011;67485;48.816;9.930;2023-04-06T06:04:30;11.68;;;5.65;;
78209;SDS011;67485;48.816;9.930;2023-04-06T06:06:56;9.68;;;6.25;;
78209;SDS011;67485;48.816;9.930;2023-04-06T06:09:33;8.20;;;5.25;;
78209;SDS011;67485;48.816;9.930;2023-04-06T06:12:13;10.65;;;5.72;;
78209;SDS011;67485;48.816;9.930;2023-04-06T06:14:39;9.90;;;6.03;;
78209;SDS011;67485;48.816;9.930;2023-04-06T06:17:06;10.80;;;5.85;;
78209;SDS011;67485;48.816;9.930;2023-04-06T06:19:32;9.82;;;5.68;;
78209;SDS011;67485;48.816;9.930;2023-04-06T06:22:01;10.43;;;5.85;;
78209;SDS011;67485;48.816;9.930;2023-04-06T06:24:28;11.73;;;6.10;;
78209;SDS011;67485;48.816;9.930;2023-04-06T06:26:54;10.60;;;5.60;;
78209;SDS011;67485;48.816;9.930;2023-04-06T06:29:25;9.80;;;5.50;;
78209;SDS011;67485;48.816;9.930;2023-04-06T06:31:50;11.85;;;5.63;;
78209;SDS011;67485;48.816;9.930;2023-04-06T06:34:16;10.75;;;5.68;;
78209;SDS011;67485;48.816;9.930;2023-04-06T06:36:45;10.47;;;5.27;;
78209;SDS011;67485;48.816;9.930;2023-04-06T06:39:12;10.77;;;5.45;;
78209;SDS011;67485;48.816;9.930;2023-04-06T06:41:38;14.95;;;5.65;;
78209;SDS011;67485;48.816;9.930;2023-04-06T06:44:05;9.65;;;5.97;;
78209;SDS011;67485;48.816;9.930;2023-04-06T06:46:33;9.23;;;5.95;;
78209;SDS011;67485;48.816;9.930;2023-04-06T06:48:59;13.37;;;6.90;;
78209;SDS011;67485;48.816;9.930;2023-04-06T06:51:25;11.45;;;6.90;;
78209;SDS011;67485;48.816;9.930;2023-04-06T06:53:51;12.82;;;7.07;;
78209;SDS011;67485;48.816;9.930;2023-04-06T06:56:17;14.80;;;7.13;;
78209;SDS011;67485;48.816;9.930;2023-04-06T06:58:43;16.55;;;8.32;;
78209;SDS011;67485;48.816;9.930;2023-04-06T07:01:09;14.13;;;8.00;;
78209;SDS011;67485;48.816;9.930;2023-04-06T07:03:35;15.70;;;7.95;;
78209;SDS011;67485;48.816;9.930;2023-04-06T07:06:01;14.98;;;7.80;;
78209;SDS011;67485;48.816;9.930;2023-04-06T07:08:26;17.70;;;8.40;;
78209;SDS011;67485;48.816;9.930;2023-04-06T07:10:52;16.75;;;8.18;;
78209;SDS011;67485;48.816;9.930;2023-04-06T07:13:19;16.20;;;7.78;;
78209;SDS011;67485;48.816;9.930;2023-04-06T07:15:50;16.83;;;8.77;;
78209;SDS011;67485;48.816;9.930;2023-04-06T07:18:16;13.98;;;7.18;;
78209;SDS011;67485;48.816;9.930;2023-04-06T07:20:43;11.15;;;5.93;;
78209;SDS011;67485;48.816;9.930;2023-04-06T07:23:09;11.15;;;6.35;;
78209;SDS011;67485;48.816;9.930;2023-04-06T07:25:35;12.60;;;6.83;;
78209;SDS011;67485;48.816;9.930;2023-04-06T07:28:04;11.65;;;6.70;;
78209;SDS011;67485;48.816;9.930;2023-04-06T07:30:31;11.32;;;6.10;;
78209;SDS011;67485;48.816;9.930;2023-04-06T07:32:58;12.40;;;6.93;;
78209;SDS011;67485;48.816;9.930;2023-04-06T07:35:27;12.88;;;6.50;;
78209;SDS011;67485;48.816;9.930;2023-04-06T07:37:53;14.17;;;6.57;;
78209;SDS011;67485;48.816;9.930;2023-04-06T07:40:21;12.90;;;6.80;;
78209;SDS011;67485;48.816;9.930;2023-04-06T07:42:48;12.55;;;6.55;;
78209;SDS011;67485;48.816;9.930;2023-04-06T07:45:14;14.73;;;7.00;;
78209;SDS011;67485;48.816;9.930;2023-04-06T07:47:41;11.18;;;6.45;;
78209;SDS011;67485;48.816;9.930;2023-04-06T07:50:08;11.07;;;6.97;;
78209;SDS011;67485;48.816;9.930;2023-04-06T07:52:34;11.85;;;6.82;;
78209;SDS011;67485;48.816;9.930;2023-04-06T07:55:00;12.55;;;6.63;;
78209;SDS011;67485;48.816;9.930;2023-04-06T07:57:26;15.87;;;6.87;;
78209;SDS011;67485;48.816;9.930;2023-04-06T07:59:52;14.37;;;6.77;;
78209;SDS011;67485;48.816;9.930;2023-04-06T08:02:18;10.93;;;6.75;;
78209;SDS011;67485;48.816;9.930;2023-04-06T08:04:44;13.45;;;7.10;;
78209;SDS011;67485;48.816;9.930;2023-04-06T08:07:10;14.03;;;6.80;;
78209;SDS011;67485;48.816;9.930;2023-04-06T08:09:35;11.63;;;6.47;;
78209;SDS011;67485;48.816;9.930;2023-04-06T08:12:01;11.90;;;6.45;;
78209;SDS011;67485;48.816;9.930;2023-04-06T08:14:27;10.73;;;6.10;;
78209;SDS011;67485;48.816;9.930;2023-04-06T08:16:53;12.02;;;6.38;;
78209;SDS011;67485;48.816;9.930;2023-04-06T08:19:19;10.70;;;6.00;;
78209;SDS011;67485;48.816;9.930;2023-04-06T08:21:45;11.00;;;6.05;;
78209;SDS011;67485;48.816;9.930;2023-04-06T08:24:11;14.70;;;6.40;;
78209;SDS011;67485;48.816;9.930;2023-04-06T08:26:37;12.23;;;6.13;;
78209;SDS011;67485;48.816;9.930;2023-04-06T08:29:03;10.53;;;5.70;;
78209;SDS011;67485;48.816;9.930;2023-04-06T08:31:33;11.73;;;6.68;;
78209;SDS011;67485;48.816;9.930;2023-04-06T08:33:59;11.10;;;6.07;;
78209;SDS011;67485;48.816;9.930;2023-04-06T08:36:25;11.60;;;6.10;;
78209;SDS011;67485;48.816;9.930;2023-04-06T08:38:51;9.60;;;5.70;;
78209;SDS011;67485;48.816;9.930;2023-04-06T08:41:17;10.40;;;5.57;;
78209;SDS011;67485;48.816;9.930;2023-04-06T08:43:44;10.25;;;6.20;;
78209;SDS011;67485;48.816;9.930;2023-04-06T08:46:12;11.73;;;6.13;;
78209;SDS011;67485;48.816;9.930;2023-04-06T08:48:40;15.53;;;5.47;;
78209;SDS011;67485;48.816;9.930;2023-04-06T08:51:10;10.20;;;6.47;;
78209;SDS011;67485;48.816;9.930;2023-04-06T08:53:37;12.85;;;6.25;;
78209;SDS011;67485;48.816;9.930;2023-04-06T08:56:03;12.18;;;6.20;;
78209;SDS011;67485;48.816;9.930;2023-04-06T08:58:34;13.90;;;6.25;;
78209;SDS011;67485;48.816;9.930;2023-04-06T09:01:02;10.33;;;6.20;;
78209;SDS011;67485;48.816;9.930;2023-04-06T09:03:34;9.70;;;6.15;;
78209;SDS011;67485;48.816;9.930;2023-04-06T09:06:02;10.02;;;6.57;;
78209;SDS011;67485;48.816;9.930;2023-04-06T09:08:29;11.40;;;5.65;;
78209;SDS011;67485;48.816;9.930;2023-04-06T09:10:55;9.80;;;5.83;;
78209;SDS011;67485;48.816;9.930;2023-04-06T09:13:21;10.15;;;5.70;;
78209;SDS011;67485;48.816;9.930;2023-04-06T09:15:47;8.98;;;5.30;;
78209;SDS011;67485;48.816;9.930;2023-04-06T09:18:30;8.00;;;5.20;;
78209;SDS011;67485;48.816;9.930;2023-04-06T09:21:06;11.55;;;5.85;;
78209;SDS011;67485;48.816;9.930;2023-04-06T09:23:33;12.10;;;5.70;;
78209;SDS011;67485;48.816;9.930;2023-04-06T09:26:09;9.13;;;5.10;;
78209;SDS011;67485;48.816;9.930;2023-04-06T09:28:52;10.70;;;5.40;;
78209;SDS011;67485;48.816;9.930;2023-04-06T09:31:23;10.07;;;5.67;;
78209;SDS011;67485;48.816;9.930;2023-04-06T09:33:50;9.57;;;4.90;;
78209;SDS011;67485;48.816;9.930;2023-04-06T09:36:20;8.00;;;5.20;;
78209;SDS011;67485;48.816;9.930;2023-04-06T09:39:02;9.52;;;5.07;;
78209;SDS011;67485;48.816;9.930;2023-04-06T09:41:31;7.68;;;4.82;;
78209;SDS011;67485;48.816;9.930;2023-04-06T09:46:39;6.80;;;4.30;;
78209;SDS011;67485;48.816;9.930;2023-04-06T09:49:08;9.20;;;4.95;;
78209;SDS011;67485;48.816;9.930;2023-04-06T09:51:38;9.20;;;5.70;;
78209;SDS011;67485;48.816;9.930;2023-04-06T09:54:06;8.98;;;5.95;;
78209;SDS011;67485;48.816;9.930;2023-04-06T09:56:50;9.77;;;6.00;;
78209;SDS011;67485;48.816;9.930;2023-04-06T09:59:26;9.77;;;5.72;;
78209;SDS011;67485;48.816;9.930;2023-04-06T10:05:05;8.88;;;5.88;;
78209;SDS011;67485;48.816;9.930;2023-04-06T10:07:39;10.50;;;6.40;;
78209;SDS011;67485;48.816;9.930;2023-04-06T10:10:07;8.70;;;6.07;;
78209;SDS011;67485;48.816;9.930;2023-04-06T10:12:36;10.38;;;6.00;;
78209;SDS011;67485;48.816;9.930;2023-04-06T10:15:03;8.90;;;5.78;;
78209;SDS011;67485;48.816;9.930;2023-04-06T10:17:29;9.48;;;6.55;;
78209;SDS011;67485;48.816;9.930;2023-04-06T10:19:58;8.33;;;5.70;;
78209;SDS011;67485;48.816;9.930;2023-04-06T10:28:30;7.65;;;4.93;;
78209;SDS011;67485;48.816;9.930;2023-04-06T10:30:46;8.63;;;4.30;;
78209;SDS011;67485;48.816;9.930;2023-04-06T10:33:12;9.25;;;4.80;;
78209;SDS011;67485;48.816;9.930;2023-04-06T10:35:39;9.48;;;5.90;;
78209;SDS011;67485;48.816;9.930;2023-04-06T10:38:05;10.15;;;6.03;;
78209;SDS011;67485;48.816;9.930;2023-04-06T10:40:32;9.48;;;6.35;;
78209;SDS011;67485;48.816;9.930;2023-04-06T10:43:12;7.90;;;5.23;;
78209;SDS011;67485;48.816;9.930;2023-04-06T10:45:40;7.43;;;5.22;;
78209;SDS011;67485;48.816;9.930;2023-04-06T10:48:12;8.85;;;5.85;;
78209;SDS011;67485;48.816;9.930;2023-04-06T10:50:39;7.68;;;5.25;;
78209;SDS011;67485;48.816;9.930;2023-04-06T10:53:05;7.78;;;5.20;;
78209;SDS011;67485;48.816;9.930;2023-04-06T10:55:31;9.37;;;5.07;;
78209;SDS011;67485;48.816;9.930;2023-04-06T10:57:57;7.68;;;5.07;;
78209;SDS011;67485;48.816;9.930;2023-04-06T11:00:23;9.70;;;5.25;;
78209;SDS011;67485;48.816;9.930;2023-04-06T11:02:49;7.00;;;5.38;;
78209;SDS011;67485;48.816;9.930;2023-04-06T11:05:15;6.60;;;5.00;;
78209;SDS011;67485;48.816;9.930;2023-04-06T11:07:41;7.70;;;5.07;;
78209;SDS011;67485;48.816;9.930;2023-04-06T11:10:07;7.23;;;4.60;;
78209;SDS011;67485;48.816;9.930;2023-04-06T11:12:34;7.00;;;5.10;;
78209;SDS011;67485;48.816;9.930;2023-04-06T11:15:01;6.75;;;5.15;;
78209;SDS011;67485;48.816;9.930;2023-04-06T11:17:31;8.85;;;4.70;;
78209;SDS011;67485;48.816;9.930;2023-04-06T11:19:59;7.45;;;5.20;;
78209;SDS011;67485;48.816;9.930;2023-04-06T11:22:25;7.87;;;5.00;;
78209;SDS011;67485;48.816;9.930;2023-04-06T11:24:52;8.32;;;5.20;;
78209;SDS011;67485;48.816;9.930;2023-04-06T11:27:18;7.85;;;5.10;;
78209;SDS011;67485;48.816;9.930;2023-04-06T11:29:46;6.13;;;4.78;;
78209;SDS011;67485;48.816;9.930;2023-04-06T11:32:19;6.53;;;4.65;;
78209;SDS011;67485;48.816;9.930;2023-04-06T11:34:46;6.47;;;4.20;;
78209;SDS011;67485;48.816;9.930;2023-04-06T11:37:13;8.10;;;4.65;;
78209;SDS011;67485;48.816;9.930;2023-04-06T11:39:40;5.20;;;3.97;;
78209;SDS011;67485;48.816;9.930;2023-04-06T11:42:12;5.47;;;4.20;;
78209;SDS011;67485;48.816;9.930;2023-04-06T11:44:45;6.35;;;4.47;;
78209;SDS011;67485;48.816;9.930;2023-04-06T11:47:11;8.20;;;4.77;;
78209;SDS011;67485;48.816;9.930;2023-04-06T11:49:41;10.40;;;4.53;;
78209;SDS011;67485;48.816;9.930;2023-04-06T11:52:23;6.57;;;4.88;;
78209;SDS011;67485;48.816;9.930;2023-04-06T11:54:50;6.57;;;5.10;;
78209;SDS011;67485;48.816;9.930;2023-04-06T11:57:18;8.17;;;4.67;;
78209;SDS011;67485;48.816;9.930;2023-04-06T11:59:45;7.28;;;4.93;;
78209;SDS011;67485;48.816;9.930;2023-04-06T12:02:11;7.30;;;4.72;;
78209;SDS011;67485;48.816;9.930;2023-04-06T12:04:37;6.40;;;4.32;;
78209;SDS011;67485;48.816;9.930;2023-04-06T12:07:03;6.23;;;4.70;;
78209;SDS011;67485;48.816;9.930;2023-04-06T12:09:29;5.70;;;4.40;;
78209;SDS011;67485;48.816;9.930;2023-04-06T12:11:56;6.57;;;4.53;;
78209;SDS011;67485;48.816;9.930;2023-04-06T12:14:22;11.05;;;4.13;;
78209;SDS011;67485;48.816;9.930;2023-04-06T12:16:47;6.30;;;4.67;;
78209;SDS011;67485;48.816;9.930;2023-04-06T12:19:13;6.25;;;4.65;;
78209;SDS011;67485;48.816;9.930;2023-04-06T12:21:39;6.43;;;4.65;;
78209;SDS011;67485;48.816;9.930;2023-04-06T12:24:05;6.97;;;4.60;;
78209;SDS011;67485;48.816;9.930;2023-04-06T12:26:32;7.28;;;4.57;;
78209;SDS011;67485;48.816;9.930;2023-04-06T12:28:58;8.55;;;5.00;;
78209;SDS011;67485;48.816;9.930;2023-04-06T12:31:36;6.70;;;4.50;;
78209;SDS011;67485;48.816;9.930;2023-04-06T12:34:04;10.70;;;4.63;;
78209;SDS011;67485;48.816;9.930;2023-04-06T12:36:30;5.70;;;4.40;;
78209;SDS011;67485;48.816;9.930;2023-04-06T12:38:56;5.47;;;3.67;;
78209;SDS011;67485;48.816;9.930;2023-04-06T12:41:22;6.65;;;4.20;;
78209;SDS011;67485;48.816;9.930;2023-04-06T12:43:48;5.77;;;3.70;;
78209;SDS011;67485;48.816;9.930;2023-04-06T12:46:17;6.32;;;3.72;;
78209;SDS011;67485;48.816;9.930;2023-04-06T12:48:43;6.47;;;3.88;;
78209;SDS011;67485;48.816;9.930;2023-04-06T12:51:10;9.85;;;3.97;;
78209;SDS011;67485;48.816;9.930;2023-04-06T12:53:35;7.40;;;3.97;;
78209;SDS011;67485;48.816;9.930;2023-04-06T12:56:02;5.57;;;3.80;;
78209;SDS011;67485;48.816;9.930;2023-04-06T12:58:28;6.72;;;3.70;;
78209;SDS011;67485;48.816;9.930;2023-04-06T13:00:55;4.80;;;3.45;;
78209;SDS011;67485;48.816;9.930;2023-04-06T13:03:22;5.43;;;3.60;;
78209;SDS011;67485;48.816;9.930;2023-04-06T13:05:49;5.50;;;3.67;;
78209;SDS011;67485;48.816;9.930;2023-04-06T13:08:17;4.78;;;3.47;;
78209;SDS011;67485;48.816;9.930;2023-04-06T13:10:44;7.70;;;3.42;;
78209;SDS011;67485;48.816;9.930;2023-04-06T13:13:16;6.97;;;3.75;;
78209;SDS011;67485;48.816;9.930;2023-04-06T13:15:43;6.60;;;3.77;;
78209;SDS011;67485;48.816;9.930;2023-04-06T13:18:10;5.35;;;3.35;;
78209;SDS011;67485;48.816;9.930;2023-04-06T13:20:36;5.50;;;3.80;;
78209;SDS011;67485;48.816;9.930;2023-04-06T13:23:02;5.13;;;3.45;;
78209;SDS011;67485;48.816;9.930;2023-04-06T13:25:28;6.93;;;2.93;;
78209;SDS011;67485;48.816;9.930;2023-04-06T13:27:54;5.25;;;3.45;;
78209;SDS011;67485;48.816;9.930;2023-04-06T13:30:20;5.33;;;3.50;;
78209;SDS011;67485;48.816;9.930;2023-04-06T13:32:46;5.80;;;3.67;;
78209;SDS011;67485;48.816;9.930;2023-04-06T13:35:12;6.55;;;3.25;;
78209;SDS011;67485;48.816;9.930;2023-04-06T13:37:38;5.35;;;3.40;;
78209;SDS011;67485;48.816;9.930;2023-04-06T13:40:04;5.47;;;3.80;;
78209;SDS011;67485;48.816;9.930;2023-04-06T13:42:30;5.53;;;3.50;;
78209;SDS011;67485;48.816;9.930;2023-04-06T13:44:56;5.72;;;3.45;;
78209;SDS011;67485;48.816;9.930;2023-04-06T13:47:22;8.45;;;3.92;;
78209;SDS011;67485;48.816;9.930;2023-04-06T13:49:51;6.47;;;3.87;;
78209;SDS011;67485;48.816;9.930;2023-04-06T13:52:18;5.60;;;3.70;;
78209;SDS011;67485;48.816;9.930;2023-04-06T13:54:44;6.07;;;3.80;;
78209;SDS011;67485;48.816;9.930;2023-04-06T13:57:10;5.07;;;3.38;;
78209;SDS011;67485;48.816;9.930;2023-04-06T13:59:37;4.67;;;3.57;;
78209;SDS011;67485;48.816;9.930;2023-04-06T14:02:05;5.93;;;3.67;;
78209;SDS011;67485;48.816;9.930;2023-04-06T14:04:32;6.80;;;3.95;;
78209;SDS011;67485;48.816;9.930;2023-04-06T14:06:59;5.55;;;4.00;;
78209;SDS011;67485;48.816;9.930;2023-04-06T14:09:25;7.35;;;3.88;;
78209;SDS011;67485;48.816;9.930;2023-04-06T14:11:51;4.90;;;3.77;;
78209;SDS011;67485;48.816;9.930;2023-04-06T14:14:17;6.97;;;4.45;;
78209;SDS011;67485;48.816;9.930;2023-04-06T14:16:43;7.15;;;3.92;;
78209;SDS011;67485;48.816;9.930;2023-04-06T14:19:10;5.60;;;4.10;;
78209;SDS011;67485;48.816;9.930;2023-04-06T14:21:40;5.83;;;4.03;;
78209;SDS011;67485;48.816;9.930;2023-04-06T14:24:06;6.60;;;3.72;;
78209;SDS011;67485;48.816;9.930;2023-04-06T14:26:33;6.80;;;3.85;;
78209;SDS011;67485;48.816;9.930;2023-04-06T14:29:00;7.15;;;4.40;;
78209;SDS011;67485;48.816;9.930;2023-04-06T14:31:26;5.47;;;4.05;;
78209;SDS011;67485;48.816;9.930;2023-04-06T14:33:52;5.50;;;3.57;;
78209;SDS011;67485;48.816;9.930;2023-04-06T14:36:18;5.40;;;4.10;;
78209;SDS011;67485;48.816;9.930;2023-04-06T14:38:44;7.65;;;4.40;;
78209;SDS011;67485;48.816;9.930;2023-04-06T14:41:15;7.07;;;4.85;;
78209;SDS011;67485;48.816;9.930;2023-04-06T14:43:42;7.13;;;4.40;;
78209;SDS011;67485;48.816;9.930;2023-04-06T14:46:08;7.25;;;3.90;;
78209;SDS011;67485;48.816;9.930;2023-04-06T14:48:34;6.10;;;4.17;;
78209;SDS011;67485;48.816;9.930;2023-04-06T14:51:00;6.18;;;4.32;;
78209;SDS011;67485;48.816;9.930;2023-04-06T14:53:26;7.07;;;3.90;;
78209;SDS011;67485;48.816;9.930;2023-04-06T14:55:53;6.72;;;4.32;;
78209;SDS011;67485;48.816;9.930;2023-04-06T14:58:20;5.63;;;3.23;;
78209;SDS011;67485;48.816;9.930;2023-04-06T15:00:46;7.93;;;4.00;;